createdAt,value
2023-11-16T00:00:14.673Z,7.493
2023-11-16T00:01:14.763Z,7.501
2023-11-16T00:02:14.702Z,7.504
2023-11-16T00:03:14.952Z,7.536
2023-11-16T00:04:15.190Z,7.552
2023-11-16T00:05:14.057Z,7.557
2023-11-16T00:06:14.955Z,7.568
2023-11-16T00:07:14.815Z,7.544
2023-11-16T00:08:14.653Z,7.571
2023-11-16T00:09:14.553Z,7.557
2023-11-16T00:11:14.380Z,7.571
2023-11-16T00:12:14.508Z,7.533
2023-11-16T00:13:14.865Z,7.509
2023-11-16T00:14:14.703Z,7.507
2023-11-16T00:15:14.571Z,7.504
2023-11-16T00:16:14.582Z,7.533
2023-11-16T00:17:14.558Z,7.525
2023-11-16T00:18:14.645Z,7.504
2023-11-16T00:20:14.065Z,7.531
2023-11-16T00:21:14.925Z,7.523
2023-11-16T00:23:14.574Z,7.547
2023-11-16T00:24:14.441Z,7.493
2023-11-16T00:25:14.186Z,7.451
2023-11-16T00:26:14.982Z,7.467
2023-11-16T00:27:14.726Z,7.453
2023-11-16T00:28:14.467Z,7.432
2023-11-16T00:29:14.352Z,7.456
2023-11-16T00:31:15.134Z,7.475
2023-11-16T00:32:15.195Z,7.437
2023-11-16T00:33:15.217Z,7.445
2023-11-16T00:34:14.014Z,7.459
2023-11-16T00:35:14.714Z,7.419
2023-11-16T00:36:14.477Z,7.389
2023-11-16T00:38:14.147Z,7.392
2023-11-16T00:39:15.053Z,7.370
2023-11-16T00:40:14.879Z,7.376
2023-11-16T00:42:14.600Z,7.381
2023-11-16T00:43:14.391Z,7.333
2023-11-16T00:44:14.231Z,7.312
2023-11-16T00:45:14.971Z,7.397
2023-11-16T00:46:15.124Z,7.403
2023-11-16T00:47:14.281Z,7.427
2023-11-16T00:48:14.692Z,7.395
2023-11-16T00:49:14.699Z,7.381
2023-11-16T00:50:14.481Z,7.346
2023-11-16T00:51:14.490Z,7.330
2023-11-16T00:52:14.306Z,7.405
2023-11-16T00:55:14.998Z,7.408
2023-11-16T00:56:14.757Z,7.405
2023-11-16T00:57:14.505Z,7.370
2023-11-16T00:58:14.264Z,7.424
2023-11-16T01:00:15.492Z,7.419
2023-11-16T01:01:14.498Z,7.432
2023-11-16T01:02:14.699Z,7.429
2023-11-16T01:03:15.200Z,7.477
2023-11-16T01:04:14.310Z,7.467
2023-11-16T01:05:14.171Z,7.472
2023-11-16T01:06:15.028Z,7.467
2023-11-16T01:08:14.429Z,7.480
2023-11-16T01:09:14.348Z,7.461
2023-11-16T01:10:14.249Z,7.533
2023-11-16T01:11:14.973Z,7.491
2023-11-16T01:12:14.658Z,7.480
2023-11-16T01:13:15.084Z,7.472
2023-11-16T01:14:14.710Z,7.480
2023-11-16T01:15:14.509Z,7.467
2023-11-16T01:18:14.899Z,7.435
2023-11-16T01:19:14.917Z,7.440
2023-11-16T01:20:14.637Z,7.472
2023-11-16T01:21:14.443Z,7.464
2023-11-16T01:22:14.429Z,7.467
2023-11-16T01:23:14.852Z,7.477
2023-11-16T01:24:16.514Z,7.472
2023-11-16T01:25:14.514Z,7.488
2023-11-16T01:26:14.286Z,7.552
2023-11-16T01:27:14.607Z,7.512
2023-11-16T01:28:15.012Z,7.512
2023-11-16T01:29:15.058Z,7.493
2023-11-16T01:30:14.971Z,7.512
2023-11-16T01:31:15.069Z,7.533
2023-11-16T01:33:15.176Z,7.472
2023-11-16T01:34:14.953Z,7.469
2023-11-16T01:36:14.738Z,7.459
2023-11-16T01:38:14.218Z,7.467
2023-11-16T01:39:15.229Z,7.445
2023-11-16T01:40:14.999Z,7.435
2023-11-16T01:41:14.663Z,7.453
2023-11-16T01:44:14.661Z,7.408
2023-11-16T01:45:14.413Z,7.467
2023-11-16T01:46:14.033Z,7.456
2023-11-16T01:47:13.966Z,7.459
2023-11-16T01:48:14.983Z,7.475
2023-11-16T01:50:14.365Z,7.491
2023-11-16T01:51:15.501Z,7.491
2023-11-16T01:52:14.226Z,7.507
2023-11-16T01:53:15.256Z,7.493
2023-11-16T01:54:14.882Z,7.517
2023-11-16T01:55:14.652Z,7.499
2023-11-16T01:56:14.077Z,7.443
2023-11-16T01:57:14.892Z,7.440
2023-11-16T01:59:14.117Z,7.445
2023-11-16T02:00:14.905Z,7.429
2023-11-16T02:01:14.729Z,7.427
2023-11-16T02:02:14.989Z,7.472
2023-11-16T02:03:15.038Z,7.456
2023-11-16T02:04:19.449Z,7.472
2023-11-16T02:05:14.098Z,7.467
2023-11-16T02:06:14.994Z,7.456
2023-11-16T02:09:14.679Z,7.451
2023-11-16T02:10:14.278Z,7.464
2023-11-16T02:11:16.989Z,7.475
2023-11-16T02:12:13.995Z,7.485
2023-11-16T02:13:14.573Z,7.472
2023-11-16T02:14:14.088Z,7.448
2023-11-16T02:15:14.778Z,7.467
2023-11-16T02:16:14.559Z,7.459
2023-11-16T02:17:14.201Z,7.456
2023-11-16T02:18:14.894Z,7.451
2023-11-16T02:19:14.525Z,7.424
2023-11-16T02:22:14.242Z,7.403
2023-11-16T02:23:14.777Z,7.349
2023-11-16T02:24:14.401Z,7.381
2023-11-16T02:25:13.901Z,7.344
2023-11-16T02:26:14.681Z,7.376
2023-11-16T02:27:14.385Z,7.389
2023-11-16T02:28:14.088Z,7.368
2023-11-16T02:29:14.572Z,7.397
2023-11-16T02:30:14.296Z,7.421
2023-11-16T02:31:13.904Z,7.437
2023-11-16T02:32:14.640Z,7.432
2023-11-16T02:33:14.752Z,7.451
2023-11-16T02:34:14.868Z,7.464
2023-11-16T02:35:14.366Z,7.419
2023-11-16T02:36:14.992Z,7.443
2023-11-16T02:37:14.621Z,7.381
2023-11-16T02:38:14.305Z,7.381
2023-11-16T02:39:15.127Z,7.354
2023-11-16T02:43:14.613Z,7.392
2023-11-16T02:44:14.204Z,7.365
2023-11-16T02:45:14.884Z,7.365
2023-11-16T02:46:14.489Z,7.387
2023-11-16T02:47:14.049Z,7.341
2023-11-16T02:48:15.399Z,7.320
2023-11-16T02:50:13.921Z,7.325
2023-11-16T02:51:14.585Z,7.346
2023-11-16T02:52:14.268Z,7.336
2023-11-16T02:53:14.897Z,7.280
2023-11-16T02:55:14.124Z,7.301
2023-11-16T02:56:14.832Z,7.304
2023-11-16T02:57:14.574Z,7.290
2023-11-16T02:58:14.192Z,7.253
2023-11-16T02:59:14.782Z,7.237
2023-11-16T03:00:14.631Z,7.200
2023-11-16T03:01:14.840Z,7.176
2023-11-16T03:02:14.444Z,7.184
2023-11-16T03:03:14.213Z,7.178
2023-11-16T03:04:14.510Z,7.152
2023-11-16T03:05:14.150Z,7.168
2023-11-16T03:06:14.859Z,7.119
2023-11-16T03:07:30.818Z,7.170
2023-11-16T03:09:14.269Z,7.130
2023-11-16T03:10:14.867Z,7.117
2023-11-16T03:11:14.397Z,7.154
2023-11-16T03:12:13.858Z,7.149
2023-11-16T03:13:14.660Z,7.114
2023-11-16T03:14:14.206Z,7.144
2023-11-16T03:15:14.926Z,7.093
2023-11-16T03:16:14.751Z,7.154
2023-11-16T03:17:14.320Z,7.178
2023-11-16T03:18:15.078Z,7.152
2023-11-16T03:19:14.753Z,7.141
2023-11-16T03:21:14.865Z,7.063
2023-11-16T03:22:14.489Z,7.098
2023-11-16T03:23:13.961Z,7.087
2023-11-16T03:24:14.726Z,7.093
2023-11-16T03:25:14.300Z,7.066
2023-11-16T03:26:14.824Z,7.002
2023-11-16T03:27:14.465Z,7.031
2023-11-16T03:28:14.068Z,7.069
2023-11-16T03:29:14.600Z,7.087
2023-11-16T03:30:14.509Z,7.074
2023-11-16T03:31:14.630Z,7.106
2023-11-16T03:32:14.122Z,7.053
2023-11-16T03:33:15.358Z,7.061
2023-11-16T03:34:14.153Z,7.101
2023-11-16T03:35:14.658Z,7.055
2023-11-16T03:36:14.636Z,7.090
2023-11-16T03:37:14.231Z,7.093
2023-11-16T03:38:14.757Z,7.007
2023-11-16T03:40:14.131Z,6.938
2023-11-16T03:41:14.729Z,7.005
2023-11-16T03:42:14.255Z,6.943
2023-11-16T03:43:14.947Z,6.874
2023-11-16T03:45:14.161Z,6.884
2023-11-16T03:46:14.946Z,6.906
2023-11-16T03:47:14.555Z,6.903
2023-11-16T03:48:14.544Z,6.903
2023-11-16T03:49:14.735Z,6.863
2023-11-16T03:50:14.340Z,6.850
2023-11-16T03:51:14.045Z,6.941
2023-11-16T03:52:14.870Z,6.919
2023-11-16T03:53:14.322Z,6.938
2023-11-16T03:54:15.011Z,6.930
2023-11-16T03:55:14.783Z,6.927
2023-11-16T03:57:14.117Z,6.933
2023-11-16T03:58:14.826Z,6.965
2023-11-16T03:59:14.321Z,6.975
2023-11-16T04:00:15.316Z,6.975
2023-11-16T04:01:13.873Z,6.967
2023-11-16T04:02:14.518Z,7.007
2023-11-16T04:03:14.488Z,6.986
2023-11-16T04:04:15.001Z,7.007
2023-11-16T04:06:14.508Z,6.970
2023-11-16T04:07:14.204Z,6.994
2023-11-16T04:08:14.690Z,6.941
2023-11-16T04:09:14.446Z,6.943
2023-11-16T04:10:14.848Z,6.925
2023-11-16T04:11:14.359Z,6.946
2023-11-16T04:12:13.895Z,6.941
2023-11-16T04:13:14.708Z,6.911
2023-11-16T04:14:14.209Z,6.919
2023-11-16T04:15:15.464Z,6.906
2023-11-16T04:16:14.225Z,6.887
2023-11-16T04:17:14.840Z,6.852
2023-11-16T04:18:14.734Z,6.836
2023-11-16T04:19:14.878Z,6.815
2023-11-16T04:20:14.057Z,6.735
2023-11-16T04:21:14.836Z,6.802
2023-11-16T04:22:14.505Z,6.804
2023-11-16T04:23:13.920Z,6.746
2023-11-16T04:24:14.606Z,6.772
2023-11-16T04:25:14.371Z,6.756
2023-11-16T04:28:14.405Z,6.812
2023-11-16T04:29:13.936Z,6.874
2023-11-16T04:30:14.753Z,6.850
2023-11-16T04:31:14.555Z,6.887
2023-11-16T04:32:14.392Z,6.866
2023-11-16T04:33:14.034Z,6.874
2023-11-16T04:34:14.842Z,6.882
2023-11-16T04:35:14.335Z,6.901
2023-11-16T04:38:14.357Z,6.895
2023-11-16T04:39:15.005Z,6.911
2023-11-16T04:40:14.583Z,6.911
2023-11-16T04:41:14.065Z,6.935
2023-11-16T04:42:14.778Z,6.911
2023-11-16T04:43:14.541Z,6.874
2023-11-16T04:44:14.205Z,6.927
2023-11-16T04:45:14.926Z,6.922
2023-11-16T04:46:14.576Z,6.906
2023-11-16T04:47:14.060Z,6.951
2023-11-16T04:48:15.145Z,6.903
2023-11-16T04:49:15.423Z,6.911
2023-11-16T04:50:14.510Z,6.855
2023-11-16T04:51:14.176Z,6.866
2023-11-16T04:52:14.895Z,6.828
2023-11-16T04:53:14.414Z,6.804
2023-11-16T04:54:13.938Z,6.775
2023-11-16T04:55:19.493Z,6.799
2023-11-16T04:57:14.261Z,6.655
2023-11-16T04:58:14.748Z,6.724
2023-11-16T04:59:14.204Z,6.682
2023-11-16T05:00:15.283Z,6.698
2023-11-16T05:01:14.204Z,6.609
2023-11-16T05:02:14.793Z,6.585
2023-11-16T05:03:14.924Z,6.553
2023-11-16T05:04:14.302Z,6.532
2023-11-16T05:05:14.274Z,6.484
2023-11-16T05:06:15.332Z,6.495
2023-11-16T05:07:13.930Z,6.433
2023-11-16T05:08:14.490Z,6.407
2023-11-16T05:09:14.063Z,6.404
2023-11-16T05:10:14.828Z,6.423
2023-11-16T05:11:13.921Z,6.353
2023-11-16T05:12:14.683Z,6.396
2023-11-16T05:13:14.319Z,6.334
2023-11-16T05:14:14.789Z,6.358
2023-11-16T05:15:16.363Z,6.382
2023-11-16T05:16:15.803Z,6.332
2023-11-16T05:17:14.436Z,6.340
2023-11-16T05:18:14.318Z,6.324
2023-11-16T05:19:13.943Z,6.308
2023-11-16T05:20:14.477Z,6.329
2023-11-16T05:21:17.810Z,6.358
2023-11-16T05:23:14.555Z,6.340
2023-11-16T05:24:14.213Z,6.366
2023-11-16T05:25:14.882Z,6.308
2023-11-16T05:26:14.494Z,6.308
2023-11-16T05:27:14.060Z,6.252
2023-11-16T05:28:14.665Z,6.284
2023-11-16T05:32:14.091Z,6.289
2023-11-16T05:33:14.921Z,6.302
2023-11-16T05:35:14.251Z,6.361
2023-11-16T05:36:14.906Z,6.353
2023-11-16T05:37:14.484Z,6.361
2023-11-16T05:38:13.960Z,6.366
2023-11-16T05:39:14.514Z,6.350
2023-11-16T05:40:14.179Z,6.393
2023-11-16T05:41:14.811Z,6.374
2023-11-16T05:42:14.403Z,6.382
2023-11-16T05:43:13.989Z,6.404
2023-11-16T05:44:14.512Z,6.425
2023-11-16T05:45:14.336Z,6.398
2023-11-16T05:46:14.384Z,6.436
2023-11-16T05:48:14.937Z,6.492
2023-11-16T05:49:14.596Z,6.479
2023-11-16T05:50:14.062Z,6.513
2023-11-16T05:51:14.969Z,6.540
2023-11-16T05:53:14.295Z,6.516
2023-11-16T05:54:15.118Z,6.535
2023-11-16T05:55:14.691Z,6.564
2023-11-16T05:56:14.170Z,6.551
2023-11-16T05:57:14.857Z,6.543
2023-11-16T05:58:14.442Z,6.521
2023-11-16T05:59:13.997Z,6.521
2023-11-16T06:00:14.847Z,6.543
2023-11-16T06:01:14.622Z,6.497
2023-11-16T06:02:14.373Z,6.511
2023-11-16T06:03:15.286Z,6.521
2023-11-16T06:04:14.251Z,6.521
2023-11-16T06:05:19.057Z,6.484
2023-11-16T06:07:14.430Z,6.433
2023-11-16T06:08:14.101Z,6.449
2023-11-16T06:09:14.788Z,6.425
2023-11-16T06:10:14.375Z,6.449
2023-11-16T06:11:13.884Z,6.455
2023-11-16T06:12:14.598Z,6.471
2023-11-16T06:13:14.108Z,6.409
2023-11-16T06:14:14.755Z,6.407
2023-11-16T06:15:14.400Z,6.431
2023-11-16T06:16:14.207Z,6.407
2023-11-16T06:17:14.853Z,6.457
2023-11-16T06:18:14.704Z,6.431
2023-11-16T06:20:14.905Z,6.441
2023-11-16T06:21:14.505Z,6.369
2023-11-16T06:22:14.031Z,6.415
2023-11-16T06:23:14.531Z,6.393
2023-11-16T06:24:14.508Z,6.436
2023-11-16T06:25:14.591Z,6.420
2023-11-16T06:28:14.556Z,6.428
2023-11-16T06:29:14.088Z,6.431
2023-11-16T06:30:15.082Z,6.428
2023-11-16T06:31:14.845Z,6.412
2023-11-16T06:32:14.418Z,6.439
2023-11-16T06:33:14.274Z,6.463
2023-11-16T06:34:15.674Z,6.492
2023-11-16T06:35:14.636Z,6.473
2023-11-16T06:36:14.282Z,6.476
2023-11-16T06:37:13.982Z,6.521
2023-11-16T06:38:14.494Z,6.495
2023-11-16T06:39:14.048Z,6.484
2023-11-16T06:41:14.368Z,6.508
2023-11-16T06:42:13.967Z,6.537
2023-11-16T06:43:14.560Z,6.543
2023-11-16T06:44:14.057Z,6.505
2023-11-16T06:45:14.922Z,6.521
2023-11-16T06:46:14.580Z,6.511
2023-11-16T06:47:14.216Z,6.497
2023-11-16T06:48:14.032Z,6.545
2023-11-16T06:49:14.820Z,6.521
2023-11-16T06:51:14.952Z,6.524
2023-11-16T06:52:14.595Z,6.513
2023-11-16T06:53:14.087Z,6.543
2023-11-16T06:54:14.723Z,6.540
2023-11-16T06:55:14.615Z,6.564
2023-11-16T06:56:14.188Z,6.513
2023-11-16T06:57:15.010Z,6.495
2023-11-16T06:58:14.555Z,6.495
2023-11-16T06:59:14.233Z,6.468
2023-11-16T07:00:13.961Z,6.452
2023-11-16T07:01:14.031Z,6.449
2023-11-16T07:02:14.840Z,6.495
2023-11-16T07:03:14.846Z,6.543
2023-11-16T07:04:15.133Z,6.559
2023-11-16T07:06:14.568Z,6.532
2023-11-16T07:07:14.185Z,6.540
2023-11-16T07:08:14.741Z,6.524
2023-11-16T07:09:14.398Z,6.495
2023-11-16T07:10:14.034Z,6.524
2023-11-16T07:11:14.603Z,6.540
2023-11-16T07:13:13.959Z,6.543
2023-11-16T07:14:14.459Z,6.599
2023-11-16T07:15:14.389Z,6.521
2023-11-16T07:16:13.981Z,6.572
2023-11-16T07:17:15.238Z,6.521
2023-11-16T07:18:15.734Z,6.527
2023-11-16T07:19:14.845Z,6.489
2023-11-16T07:20:14.679Z,6.463
2023-11-16T07:21:14.255Z,6.428
2023-11-16T07:24:14.224Z,6.420
2023-11-16T07:25:14.991Z,6.420
2023-11-16T07:26:14.671Z,6.404
2023-11-16T07:27:14.487Z,6.433
2023-11-16T07:28:14.156Z,6.449
2023-11-16T07:29:14.710Z,6.484
2023-11-16T07:30:14.465Z,6.471
2023-11-16T07:33:16.586Z,6.473
2023-11-16T07:34:14.500Z,6.492
2023-11-16T07:35:14.111Z,6.484
2023-11-16T07:36:14.783Z,6.497
2023-11-16T07:37:14.537Z,6.457
2023-11-16T07:39:14.843Z,6.436
2023-11-16T07:40:14.588Z,6.415
2023-11-16T07:41:14.557Z,6.460
2023-11-16T07:42:14.389Z,6.398
2023-11-16T07:43:13.941Z,6.425
2023-11-16T07:44:14.549Z,6.473
2023-11-16T07:45:14.154Z,6.468
2023-11-16T07:46:14.885Z,6.473
2023-11-16T07:47:14.472Z,6.529
2023-11-16T07:48:14.174Z,6.535
2023-11-16T07:49:14.994Z,6.559
2023-11-16T07:50:14.792Z,6.476
2023-11-16T07:51:14.509Z,6.497
2023-11-16T07:52:14.689Z,6.471
2023-11-16T07:53:14.821Z,6.473
2023-11-16T07:54:14.684Z,6.433
2023-11-16T07:55:14.307Z,6.447
2023-11-16T07:56:13.921Z,6.417
2023-11-16T07:57:14.636Z,6.415
2023-11-16T07:59:13.993Z,6.334
2023-11-16T08:00:18.207Z,6.372
2023-11-16T08:01:13.799Z,6.407
2023-11-16T08:02:14.315Z,6.404
2023-11-16T08:03:15.686Z,6.382
2023-11-16T08:04:14.602Z,6.334
2023-11-16T08:05:15.149Z,6.425
2023-11-16T08:06:14.204Z,6.479
2023-11-16T08:07:13.863Z,6.487
2023-11-16T08:08:14.431Z,6.492
2023-11-16T08:09:13.946Z,6.516
2023-11-16T08:10:14.310Z,6.551
2023-11-16T08:11:14.963Z,6.588
2023-11-16T08:12:14.566Z,6.615
2023-11-16T08:13:14.156Z,6.617
2023-11-16T08:14:14.716Z,6.668
2023-11-16T08:15:14.435Z,6.612
2023-11-16T08:16:14.532Z,6.679
2023-11-16T08:17:14.365Z,6.639
2023-11-16T08:18:15.051Z,6.559
2023-11-16T08:20:14.309Z,6.687
2023-11-16T08:21:14.884Z,6.738
2023-11-16T08:22:14.501Z,6.740
2023-11-16T08:23:14.144Z,6.724
2023-11-16T08:24:14.701Z,6.884
2023-11-16T08:25:14.766Z,6.927
2023-11-16T08:26:15.658Z,7.013
2023-11-16T08:28:14.074Z,7.053
2023-11-16T08:29:14.644Z,7.189
2023-11-16T08:30:14.225Z,7.053
2023-11-16T08:31:18.348Z,7.047
2023-11-16T08:32:14.139Z,7.144
2023-11-16T08:33:15.002Z,7.242
2023-11-16T08:35:14.353Z,7.392
2023-11-16T08:36:14.993Z,7.608
2023-11-16T08:37:14.123Z,7.728
2023-11-16T08:38:14.934Z,7.755
2023-11-16T08:39:14.476Z,7.792
2023-11-16T08:40:14.386Z,7.883
2023-11-16T08:43:14.245Z,7.963
2023-11-16T08:44:17.256Z,7.990
2023-11-16T08:45:14.623Z,7.953
2023-11-16T08:46:14.767Z,8.214
2023-11-16T08:47:14.193Z,8.302
2023-11-16T08:48:15.202Z,7.961
2023-11-16T08:49:14.387Z,8.241
2023-11-16T08:50:13.877Z,8.372
2023-11-16T08:51:17.449Z,8.559
2023-11-16T08:52:13.863Z,8.671
2023-11-16T08:53:14.768Z,8.615
2023-11-16T08:54:14.513Z,8.863
2023-11-16T08:56:23.813Z,8.901
2023-11-16T08:57:14.084Z,8.845
2023-11-16T08:58:14.677Z,9.063
2023-11-16T08:59:15.263Z,8.823
2023-11-16T09:00:14.836Z,8.796
2023-11-16T09:01:15.002Z,8.810
2023-11-16T09:02:18.298Z,8.796
2023-11-16T09:04:15.233Z,8.551
2023-11-16T09:06:14.222Z,8.732
2023-11-16T09:07:14.814Z,8.489
2023-11-16T09:08:14.755Z,8.660
2023-11-16T09:09:14.394Z,8.930
2023-11-16T09:10:14.166Z,8.618
2023-11-16T09:11:14.732Z,8.959
2023-11-16T09:12:14.917Z,8.708
2023-11-16T09:13:14.715Z,8.925
2023-11-16T09:14:14.536Z,9.066
2023-11-16T09:15:14.150Z,8.919
2023-11-16T09:16:14.818Z,9.371
2023-11-16T09:17:16.304Z,9.256
2023-11-16T09:18:16.660Z,9.480
2023-11-16T09:19:14.691Z,9.245
2023-11-16T09:20:14.328Z,9.325
2023-11-16T09:21:14.860Z,9.675
2023-11-16T09:23:17.720Z,10.078
2023-11-16T09:26:14.617Z,10.062
2023-11-16T09:27:14.105Z,10.214
2023-11-16T09:28:14.244Z,10.268
2023-11-16T09:29:17.708Z,10.254
2023-11-16T09:30:14.301Z,10.177
2023-11-16T09:33:14.789Z,10.057
2023-11-16T09:34:14.329Z,10.220
2023-11-16T09:35:20.476Z,9.939
2023-11-16T09:36:15.803Z,9.985
2023-11-16T09:38:14.334Z,10.105
2023-11-16T09:39:14.884Z,10.110
2023-11-16T09:40:14.494Z,10.292
2023-11-16T09:41:14.447Z,10.476
2023-11-16T09:42:14.318Z,10.628
2023-11-16T09:43:14.367Z,10.906
2023-11-16T09:44:14.964Z,10.596
2023-11-16T09:45:14.552Z,10.842
2023-11-16T09:46:14.542Z,10.431
2023-11-16T09:48:14.329Z,10.011
2023-11-16T09:49:18.435Z,9.961
2023-11-16T09:50:14.177Z,9.718
2023-11-16T09:51:14.795Z,9.899
2023-11-16T09:52:14.500Z,9.995
2023-11-16T09:53:14.234Z,10.009
2023-11-16T09:54:15.036Z,10.198
2023-11-16T09:55:14.629Z,10.313
2023-11-16T09:56:14.237Z,10.113
2023-11-16T09:57:13.920Z,10.254
2023-11-16T09:58:15.035Z,10.521
2023-11-16T10:00:14.160Z,10.276
2023-11-16T10:01:14.549Z,10.161
2023-11-16T10:02:14.675Z,10.110
2023-11-16T10:03:14.523Z,10.265
2023-11-16T10:04:15.116Z,10.196
2023-11-16T10:05:15.897Z,9.971
2023-11-16T10:07:14.226Z,10.054
2023-11-16T10:08:14.766Z,10.150
2023-11-16T10:09:14.364Z,10.003
2023-11-16T10:10:13.992Z,9.899
2023-11-16T10:11:14.536Z,9.846
2023-11-16T10:12:14.080Z,9.595
2023-11-16T10:13:14.788Z,9.646
2023-11-16T10:14:14.345Z,9.595
2023-11-16T10:15:15.016Z,9.603
2023-11-16T10:17:14.555Z,9.768
2023-11-16T10:19:13.943Z,9.640
2023-11-16T10:20:14.460Z,9.453
2023-11-16T10:21:13.974Z,9.541
2023-11-16T10:22:14.844Z,9.656
2023-11-16T10:23:14.434Z,9.587
2023-11-16T10:24:13.999Z,9.683
2023-11-16T10:25:14.836Z,9.592
2023-11-16T10:26:14.384Z,9.619
2023-11-16T10:27:13.947Z,9.456
2023-11-16T10:28:14.643Z,9.397
2023-11-16T10:29:14.164Z,9.491
2023-11-16T10:30:14.702Z,9.568
2023-11-16T10:31:14.700Z,9.670
2023-11-16T10:32:14.396Z,9.723
2023-11-16T10:33:14.015Z,9.587
2023-11-16T10:34:14.600Z,9.825
2023-11-16T10:35:14.137Z,9.774
2023-11-16T10:36:14.753Z,9.808
2023-11-16T10:37:14.529Z,9.854
2023-11-16T10:38:14.008Z,9.758
2023-11-16T10:39:14.587Z,9.790
2023-11-16T10:40:14.351Z,9.907
2023-11-16T10:41:14.883Z,9.760
2023-11-16T10:42:14.448Z,9.790
2023-11-16T10:43:14.027Z,9.833
2023-11-16T10:44:14.705Z,9.939
2023-11-16T10:45:14.294Z,9.939
2023-11-16T10:46:15.506Z,9.843
2023-11-16T10:47:14.873Z,10.027
2023-11-16T10:48:14.644Z,10.166
2023-11-16T10:49:14.621Z,10.062
2023-11-16T10:50:14.231Z,10.300
2023-11-16T10:51:14.792Z,10.321
2023-11-16T10:52:14.352Z,10.529
2023-11-16T10:53:14.948Z,10.441
2023-11-16T10:54:14.615Z,10.391
2023-11-16T10:55:14.417Z,10.623
2023-11-16T10:57:14.704Z,10.933
2023-11-16T10:58:14.224Z,10.858
2023-11-16T10:59:14.737Z,10.724
2023-11-16T11:00:14.321Z,10.468
2023-11-16T11:01:18.768Z,10.818
2023-11-16T11:03:15.035Z,10.853
2023-11-16T11:04:18.298Z,11.072
2023-11-16T11:06:14.219Z,11.146
2023-11-16T11:07:14.514Z,11.224
2023-11-16T11:08:14.237Z,11.181
2023-11-16T11:09:14.792Z,11.328
2023-11-16T11:10:14.326Z,11.582
2023-11-16T11:11:14.862Z,11.176
2023-11-16T11:12:14.938Z,10.748
2023-11-16T11:13:14.758Z,11.066
2023-11-16T11:14:14.328Z,11.053
2023-11-16T11:15:16.448Z,10.938
2023-11-16T11:16:14.320Z,10.599
2023-11-16T11:17:14.420Z,10.500
2023-11-16T11:18:15.059Z,10.420
2023-11-16T11:19:14.722Z,10.805
2023-11-16T11:20:14.327Z,10.815
2023-11-16T11:21:14.835Z,10.556
2023-11-16T11:22:14.683Z,10.591
2023-11-16T11:24:15.335Z,10.724
2023-11-16T11:25:14.968Z,10.895
2023-11-16T11:26:14.539Z,10.853
2023-11-16T11:28:14.728Z,11.202
2023-11-16T11:29:14.460Z,11.173
2023-11-16T11:30:14.045Z,11.053
2023-11-16T11:31:15.200Z,11.192
2023-11-16T11:32:17.596Z,11.202
2023-11-16T11:33:18.487Z,11.002
2023-11-16T11:34:14.399Z,10.989
2023-11-16T11:37:19.420Z,10.869
2023-11-16T11:38:13.990Z,11.104
2023-11-16T11:39:14.531Z,11.136
2023-11-16T11:40:14.304Z,10.970
2023-11-16T11:41:14.838Z,10.962
2023-11-16T11:42:14.365Z,10.660
2023-11-16T11:43:13.922Z,10.527
2023-11-16T11:44:17.763Z,10.869
2023-11-16T11:45:14.431Z,10.805
2023-11-16T11:46:14.496Z,11.050
2023-11-16T11:47:14.231Z,11.138
2023-11-16T11:48:14.937Z,11.245
2023-11-16T11:49:14.627Z,11.200
2023-11-16T11:50:17.457Z,11.096
2023-11-16T11:52:14.242Z,11.202
2023-11-16T11:53:14.837Z,11.023
2023-11-16T11:54:14.508Z,11.064
2023-11-16T11:55:14.309Z,10.922
2023-11-16T11:57:19.978Z,11.248
2023-11-16T11:58:15.128Z,11.093
2023-11-16T11:59:14.636Z,11.098
2023-11-16T12:00:18.191Z,11.061
2023-11-16T12:02:14.640Z,10.639
2023-11-16T12:03:14.699Z,10.463
2023-11-16T12:04:24.770Z,10.602
2023-11-16T12:06:15.428Z,10.554
2023-11-16T12:07:14.428Z,10.391
2023-11-16T12:08:14.020Z,10.268
2023-11-16T12:09:14.663Z,10.217
2023-11-16T12:10:14.264Z,10.038
2023-11-16T12:11:18.398Z,10.113
2023-11-16T12:12:13.976Z,10.124
2023-11-16T12:13:14.962Z,10.153
2023-11-16T12:14:13.959Z,10.017
2023-11-16T12:15:14.507Z,9.987
2023-11-16T12:16:14.648Z,9.963
2023-11-16T12:17:14.552Z,9.865
2023-11-16T12:18:18.833Z,9.929
2023-11-16T12:19:13.966Z,9.961
2023-11-16T12:20:14.495Z,9.881
2023-11-16T12:21:14.052Z,9.830
2023-11-16T12:22:14.739Z,9.902
2023-11-16T12:23:14.804Z,9.854
2023-11-16T12:24:14.887Z,9.870
2023-11-16T12:25:14.174Z,9.891
2023-11-16T12:26:14.739Z,9.817
2023-11-16T12:27:14.308Z,9.787
2023-11-16T12:28:14.007Z,9.873
2023-11-16T12:29:14.506Z,9.811
2023-11-16T12:30:17.273Z,9.787
2023-11-16T12:31:14.291Z,9.846
2023-11-16T12:34:14.747Z,9.835
2023-11-16T12:35:14.336Z,9.710
2023-11-16T12:36:16.854Z,9.686
2023-11-16T12:37:14.459Z,9.720
2023-11-16T12:38:14.043Z,9.640
2023-11-16T12:39:14.608Z,9.528
2023-11-16T12:40:14.087Z,9.539
2023-11-16T12:41:14.815Z,9.536
2023-11-16T12:42:14.029Z,9.496
2023-11-16T12:43:14.816Z,9.400
2023-11-16T12:45:13.925Z,9.437
2023-11-16T12:46:14.962Z,9.427
2023-11-16T12:47:28.706Z,9.376
2023-11-16T12:49:15.238Z,9.314
2023-11-16T12:50:14.853Z,9.253
2023-11-16T12:51:14.390Z,9.274
2023-11-16T12:52:14.309Z,9.274
2023-11-16T12:53:19.166Z,9.288
2023-11-16T12:55:14.550Z,9.192
2023-11-16T12:56:14.087Z,9.205
2023-11-16T12:57:14.094Z,9.186
2023-11-16T12:58:14.641Z,9.186
2023-11-16T12:59:17.823Z,9.176
2023-11-16T13:02:14.086Z,9.101
2023-11-16T13:03:14.989Z,9.170
2023-11-16T13:04:14.847Z,9.165
2023-11-16T13:05:20.201Z,9.261
2023-11-16T13:07:15.028Z,9.205
2023-11-16T13:08:14.665Z,9.226
2023-11-16T13:09:14.294Z,9.261
2023-11-16T13:10:14.310Z,9.301
2023-11-16T13:11:16.064Z,9.333
2023-11-16T13:12:24.553Z,9.280
2023-11-16T13:15:14.358Z,9.379
2023-11-16T13:16:14.418Z,9.365
2023-11-16T13:17:14.613Z,9.363
2023-11-16T13:18:14.269Z,9.352
2023-11-16T13:19:15.005Z,9.379
2023-11-16T13:20:14.557Z,9.304
2023-11-16T13:21:14.572Z,9.248
2023-11-16T13:22:14.132Z,9.245
2023-11-16T13:23:19.043Z,9.288
2023-11-16T13:25:14.253Z,9.266
2023-11-16T13:26:14.808Z,9.298
2023-11-16T13:27:14.363Z,9.381
2023-11-16T13:28:15.027Z,9.306
2023-11-16T13:29:16.919Z,9.240
2023-11-16T13:30:15.825Z,9.264
2023-11-16T13:33:14.731Z,9.304
2023-11-16T13:34:14.353Z,9.189
2023-11-16T13:35:17.842Z,9.128
2023-11-16T13:37:14.995Z,9.138
2023-11-16T13:38:14.550Z,9.112
2023-11-16T13:39:14.065Z,9.101
2023-11-16T13:40:15.123Z,9.112
2023-11-16T13:41:16.977Z,9.104
2023-11-16T13:42:14.464Z,9.047
2023-11-16T13:45:14.398Z,9.010
2023-11-16T13:46:14.379Z,9.015
2023-11-16T13:48:15.104Z,8.895
2023-11-16T13:49:14.692Z,8.930
2023-11-16T13:50:14.209Z,8.922
2023-11-16T13:51:14.777Z,8.901
2023-11-16T13:52:14.332Z,8.853
2023-11-16T13:53:14.904Z,8.823
2023-11-16T13:54:14.493Z,8.847
2023-11-16T13:55:14.001Z,8.861
2023-11-16T13:56:14.723Z,8.858
2023-11-16T13:57:14.173Z,8.834
2023-11-16T13:58:14.964Z,8.748
2023-11-16T13:59:14.519Z,8.786
2023-11-16T14:00:14.118Z,8.759
2023-11-16T14:01:14.905Z,8.746
2023-11-16T14:02:14.610Z,8.732
2023-11-16T14:03:15.046Z,8.732
2023-11-16T14:04:15.497Z,8.722
2023-11-16T14:05:19.120Z,8.706
2023-11-16T14:08:14.941Z,8.655
2023-11-16T14:09:14.663Z,8.684
2023-11-16T14:10:25.243Z,8.623
2023-11-16T14:11:18.699Z,8.612
2023-11-16T14:13:14.827Z,8.567
2023-11-16T14:14:14.329Z,8.543
2023-11-16T14:15:14.094Z,8.529
2023-11-16T14:16:15.711Z,8.527
2023-11-16T14:17:14.767Z,8.556
2023-11-16T14:19:14.544Z,8.540
2023-11-16T14:20:14.136Z,8.481
2023-11-16T14:21:14.717Z,8.463
2023-11-16T14:22:14.227Z,8.449
2023-11-16T14:23:17.356Z,8.476
2023-11-16T14:24:31.290Z,8.471
2023-11-16T14:26:14.246Z,8.380
2023-11-16T14:27:14.759Z,8.436
2023-11-16T14:28:14.312Z,8.431
2023-11-16T14:29:19.028Z,8.460
2023-11-16T14:31:14.779Z,8.473
2023-11-16T14:33:14.240Z,8.417
2023-11-16T14:34:15.059Z,8.431
2023-11-16T14:35:25.709Z,8.396
2023-11-16T14:37:14.421Z,8.444
2023-11-16T14:38:13.896Z,8.481
2023-11-16T14:39:14.444Z,8.460
2023-11-16T14:40:14.079Z,8.455
2023-11-16T14:41:14.652Z,8.484
2023-11-16T14:42:14.178Z,8.487
2023-11-16T14:43:14.901Z,8.492
2023-11-16T14:44:14.422Z,8.492